Time;durP1;ratioP1;P1;durP2;ratioP2;P2;SDS_P1;SDS_P2;PMS_P1;PMS_P2;Temp;Humidity;BMP_temperature;BMP_pressure;BME280_temperature;BME280_humidity;BME280_pressure;Samples;Min_cycle;Max_cycle;Signal;HPM_P1;HPM_P2
2021/11/11 00:00:40;;;;;;;19.33;14.67;;;;;;;;;;5058880;28;20476;-82
2021/11/11 00:03:06;;;;;;;13.93;10.47;;;;;;;;;;5057371;28;20921;-81
2021/11/11 00:05:33;;;;;;;15.47;10.97;;;1.80;99.90;;;;;;5074331;28;20435;-82
2021/11/11 00:08:00;;;;;;;13.70;11.77;;;;;;;;;;5058513;28;20487;-82
2021/11/11 00:10:26;;;;;;;16.60;11.80;;;;;;;;;;5080757;28;20403;-82
2021/11/11 00:12:53;;;;;;;16.37;13.03;;;1.80;99.90;;;;;;5062550;28;20430;-82
2021/11/11 00:15:19;;;;;;;15.30;11.20;;;;;;;;;;5062565;28;20832;-82
2021/11/11 00:17:46;;;;;;;16.63;11.83;;;1.80;99.90;;;;;;5080507;28;20415;-82
2021/11/11 00:20:13;;;;;;;18.67;12.70;;;1.80;99.90;;;;;;5061814;28;20468;-82
2021/11/11 00:22:40;;;;;;;17.60;12.47;;;1.80;99.90;;;;;;5080254;28;20398;-82
2021/11/11 00:25:08;;;;;;;18.20;12.37;;;1.70;99.90;;;;;;5061574;28;20443;-83
2021/11/11 00:27:34;;;;;;;14.10;9.47;;;;;;;;;;5080158;28;20422;-83
2021/11/11 00:30:00;;;;;;;15.83;10.63;;;;;;;;;;5062349;28;20447;-82
2021/11/11 00:32:27;;;;;;;17.43;10.97;;;;;;;;;;5062124;28;20431;-82
2021/11/11 00:34:53;;;;;;;23.67;11.80;;;;;;;;;;5062203;28;20470;-83
2021/11/11 00:37:20;;;;;;;14.90;11.13;;;1.80;99.90;;;;;;5062046;28;20418;-82
2021/11/11 00:39:47;;;;;;;16.57;10.50;;;;;;;;;;5062320;28;20795;-82
2021/11/11 00:42:13;;;;;;;16.30;11.23;;;;;;;;;;5064871;28;20407;-82
2021/11/11 00:44:39;;;;;;;15.03;10.33;;;;;;;;;;5084541;28;20427;-82
2021/11/11 00:47:05;;;;;;;12.73;9.77;;;1.70;99.90;;;;;;5083807;28;20773;-82
2021/11/11 00:49:31;;;;;;;16.50;10.03;;;;;;;;;;5065947;28;20177;-82
2021/11/11 00:51:58;;;;;;;19.87;11.50;;;;;;;;;;5083465;28;20202;-82
2021/11/11 00:54:24;;;;;;;16.80;11.37;;;;;;;;;;5065464;28;20463;-82
2021/11/11 00:56:50;;;;;;;14.60;10.53;;;;;;;;;;5083500;28;20407;-82
2021/11/11 00:59:16;;;;;;;17.77;11.43;;;;;;;;;;5083820;28;20650;-83
2021/11/11 01:01:42;;;;;;;16.63;11.07;;;;;;;;;;5083736;28;20403;-82
2021/11/11 01:04:08;;;;;;;12.90;9.13;;;;;;;;;;5065136;28;20844;-82
2021/11/11 01:06:34;;;;;;;14.23;9.60;;;1.90;99.90;;;;;;5066447;28;20407;-83
2021/11/11 01:09:00;;;;;;;19.00;12.53;;;;;;;;;;5065488;28;20514;-83
2021/11/11 01:11:26;;;;;;;19.47;11.63;;;;;;;;;;5084139;28;20855;-82
2021/11/11 01:13:53;;;;;;;23.87;14.93;;;;;;;;;;5082364;28;20423;-82
2021/11/11 01:16:19;;;;;;;35.80;19.63;;;;;;;;;;5065025;28;20508;-82
2021/11/11 01:18:45;;;;;;;25.13;15.93;;;;;;;;;;5082835;28;20414;-82
2021/11/11 01:21:12;;;;;;;23.17;13.70;;;;;;;;;;5082793;28;20510;-83
2021/11/11 01:23:39;;;;;;;61.30;31.10;;;2.40;99.90;;;;;;5064933;28;20415;-82
2021/11/11 01:26:06;;;;;;;46.10;26.33;;;;;;;;;;5083271;28;20415;-82
2021/11/11 01:28:32;;;;;;;22.60;15.23;;;;;;;;;;5082859;28;20422;-82
2021/11/11 01:30:58;;;;;;;20.67;14.23;;;;;;;;;;5083195;28;20415;-82
2021/11/11 01:33:24;;;;;;;16.27;11.10;;;;;;;;;;5065066;28;20411;-82
2021/11/11 01:35:50;;;;;;;18.83;11.77;;;;;;;;;;5064338;28;20454;-82
2021/11/11 01:38:17;;;;;;;19.20;11.20;;;2.00;99.90;;;;;;5064835;28;20419;-82
2021/11/11 01:40:44;;;;;;;21.13;12.03;;;2.20;99.90;;;;;;5064367;28;20446;-82
2021/11/11 01:43:10;;;;;;;15.23;10.43;;;;;;;;;;5083828;28;20465;-82
2021/11/11 01:45:41;;;;;;;13.90;9.93;;;2.10;99.90;;;;;;5083181;28;20971;-82
2021/11/11 01:48:09;;;;;;;20.10;11.90;;;2.00;99.90;;;;;;5065028;28;20410;-82
2021/11/11 01:50:37;;;;;;;19.90;11.90;;;2.00;99.90;;;;;;5066034;28;20423;-82
2021/11/11 01:53:04;;;;;;;19.77;10.87;;;;;;;;;;5065347;28;20468;-82
2021/11/11 01:55:31;;;;;;;16.70;11.20;;;2.00;99.90;;;;;;5082800;28;20504;-82
2021/11/11 01:57:57;;;;;;;16.13;10.80;;;;;;;;;;5083425;28;20784;-82
2021/11/11 02:00:55;;;;;;;15.47;10.27;;;2.10;99.90;;;;;;5066980;28;20411;-83
2021/11/11 02:03:22;;;;;;;13.17;9.47;;;;;;;;;;5076363;28;20473;-82
2021/11/11 02:05:49;;;;;;;14.27;9.47;;;1.90;99.90;;;;;;5068158;28;20446;-82
2021/11/11 02:08:17;;;;;;;13.73;9.03;;;1.90;99.90;;;;;;5086820;28;20525;-82
2021/11/11 02:10:43;;;;;;;15.27;9.27;;;;;;;;;;5064926;28;20426;-82
2021/11/11 02:13:10;;;;;;;17.20;10.57;;;1.90;99.90;;;;;;5063628;28;20418;-82
2021/11/11 02:15:36;;;;;;;14.17;10.37;;;1.90;99.90;;;;;;5063651;28;20467;-82
2021/11/11 02:18:06;;;;;;;16.70;10.43;;;1.90;99.90;;;;;;5063856;28;20419;-82
2021/11/11 02:20:34;;;;;;;14.17;9.73;;;1.90;99.90;;;;;;5063716;28;20435;-82
2021/11/11 02:23:02;;;;;;;20.10;10.73;;;2.00;99.90;;;;;;5063955;28;20395;-82
2021/11/11 02:25:29;;;;;;;19.07;11.23;;;1.90;99.90;;;;;;5063216;28;20443;-82
2021/11/11 02:28:02;;;;;;;17.50;11.03;;;2.00;99.90;;;;;;5063535;28;20781;-82
2021/11/11 02:30:30;;;;;;;17.63;11.67;;;2.00;99.90;;;;;;5081765;28;20395;-82
2021/11/11 02:32:56;;;;;;;15.70;10.90;;;;;;;;;;5063477;28;20419;-83
2021/11/11 02:35:22;;;;;;;22.07;11.67;;;2.00;99.90;;;;;;5062985;28;20488;-82
2021/11/11 02:37:48;;;;;;;19.90;11.37;;;;;;;;;;5063429;28;20514;-82
2021/11/11 02:40:14;;;;;;;17.87;11.20;;;;;;;;;;5063177;28;20408;-82
2021/11/11 02:42:42;;;;;;;16.10;10.93;;;2.10;99.90;;;;;;5063546;28;20417;-82
2021/11/11 02:45:12;;;;;;;16.80;10.73;;;2.10;99.90;;;;;;5062873;28;20208;-82
2021/11/11 02:47:37;;;;;;;17.10;10.43;;;2.10;99.90;;;;;;5063861;28;20421;-82
2021/11/11 02:50:05;;;;;;;16.37;10.47;;;2.00;99.90;;;;;;5063654;28;20430;-82
2021/11/11 02:52:31;;;;;;;18.67;10.27;;;;;;;;;;5063902;28;20185;-82
2021/11/11 02:54:57;;;;;;;16.67;10.73;;;1.90;99.90;;;;;;5081019;28;20979;-82
2021/11/11 02:57:26;;;;;;;16.30;11.03;;;1.90;99.90;;;;;;5062556;28;20184;-82
2021/11/11 02:59:56;;;;;;;18.30;11.50;;;1.80;99.90;;;;;;5064932;28;20639;-83
2021/11/11 03:02:27;;;;;;;14.20;9.73;;;1.70;99.90;;;;;;5063202;28;20407;-83
2021/11/11 03:04:54;;;;;;;15.17;9.83;;;1.80;99.90;;;;;;5084306;28;20465;-82
2021/11/11 03:07:20;;;;;;;15.07;10.67;;;;;;;;;;5067297;28;20457;-82
2021/11/11 03:09:47;;;;;;;16.30;10.10;;;1.70;99.90;;;;;;5063730;28;20430;-82
2021/11/11 03:12:13;;;;;;;15.40;8.83;;;;;;;;;;5060405;28;20426;-82
2021/11/11 03:14:40;;;;;;;13.83;9.83;;;;;;;;;;5078888;28;20465;-82
2021/11/11 03:17:07;;;;;;;15.87;9.27;;;;;;;;;;5062901;28;20419;-82
2021/11/11 03:19:33;;;;;;;15.67;9.87;;;1.80;99.90;;;;;;5080670;28;20745;-83
2021/11/11 03:22:00;;;;;;;16.57;9.73;;;;;;;;;;5062439;28;20427;-83
2021/11/11 03:24:26;;;;;;;16.27;9.07;;;;;;;;;;5079916;28;20431;-83
2021/11/11 03:26:52;;;;;;;18.83;9.93;;;;;;;;;;5080133;28;20457;-82
2021/11/11 03:29:18;;;;;;;16.93;10.10;;;;;;;;;;5061700;28;20441;-83
2021/11/11 03:31:44;;;;;;;17.30;9.40;;;;;;;;;;5062244;28;20184;-83
2021/11/11 03:34:10;;;;;;;15.47;9.53;;;;;;;;;;5080582;28;20982;-83
2021/11/11 03:36:36;;;;;;;17.30;9.87;;;;;;;;;;5080176;28;20411;-83
2021/11/11 03:39:04;;;;;;;15.83;9.10;;;1.50;99.90;;;;;;5062722;28;20403;-83
2021/11/11 03:41:30;;;;;;;15.70;9.67;;;;;;;;;;5062548;28;20440;-83
2021/11/11 03:43:56;;;;;;;16.87;9.50;;;;;;;;;;5080079;28;20442;-83
2021/11/11 03:46:22;;;;;;;13.57;9.03;;;;;;;;;;5062555;28;20207;-83
2021/11/11 03:48:48;;;;;;;15.50;9.93;;;;;;;;;;5080477;28;20403;-82
2021/11/11 03:51:15;;;;;;;15.13;9.13;;;;;;;;;;5080157;28;20432;-83
2021/11/11 03:53:41;;;;;;;16.00;8.97;;;;;;;;;;5079628;28;20760;-83
2021/11/11 03:56:08;;;;;;;14.13;8.70;;;;;;;;;;5079641;28;20975;-83
2021/11/11 03:58:34;;;;;;;12.97;8.73;;;;;;;;;;5061876;28;20437;-83
2021/11/11 04:01:00;;;;;;;13.50;8.57;;;;;;;;;;5062088;28;20415;-83
2021/11/11 04:03:25;;;;;;;13.83;8.73;;;1.30;99.90;;;;;;5080048;28;20399;-83
2021/11/11 04:05:51;;;;;;;14.77;7.87;;;;;;;;;;5062198;28;20185;-83
2021/11/11 04:08:17;;;;;;;11.37;8.20;;;1.40;99.90;;;;;;5079260;28;20176;-83
2021/11/11 04:10:43;;;;;;;12.77;7.93;;;1.30;99.90;;;;;;5062219;28;20560;-83
2021/11/11 04:13:09;;;;;;;12.33;8.10;;;;;;;;;;5061854;28;20184;-83
2021/11/11 04:15:35;;;;;;;15.00;8.30;;;;;;;;;;5061798;28;20471;-83
2021/11/11 04:18:01;;;;;;;11.40;8.53;;;;;;;;;;5065650;28;20411;-83
2021/11/11 04:20:27;;;;;;;13.93;9.40;;;;;;;;;;5084175;28;20782;-83
2021/11/11 04:22:54;;;;;;;19.50;8.90;;;;;;;;;;5065837;28;20407;-83
2021/11/11 04:25:27;;;;;;;13.50;8.80;;;;;;;;;;5065603;28;20718;-84
2021/11/11 04:27:59;;;;;;;13.90;9.00;;;;;;;;;;5086149;28;20910;-83
2021/11/11 04:32:51;;;;;;;13.47;8.47;;;1.30;99.90;;;;;;5089314;28;20494;-83
2021/11/11 04:35:17;;;;;;;17.90;10.87;;;1.20;99.90;;;;;;5065859;28;20219;-83
2021/11/11 04:38:04;;;;;;;13.73;8.90;;;;;;;;;;5065781;28;20199;-83
2021/11/11 04:40:50;;;;;;;14.80;8.20;;;1.20;99.90;;;;;;5066448;28;20173;-83
2021/11/11 04:46:03;;;;;;;13.20;8.20;;;1.10;99.90;;;;;;5085125;28;20442;-83
2021/11/11 05:04:40;;;;;;;12.87;8.67;;;1.20;99.90;;;;;;5089493;28;20427;-83
2021/11/11 05:07:06;;;;;;;14.87;9.20;;;2.20;99.90;;;;;;5081733;28;20415;-83
2021/11/11 05:09:32;;;;;;;14.23;7.73;;;1.20;99.90;;;;;;5072568;28;20493;-83
2021/11/11 05:11:58;;;;;;;15.00;7.70;;;;;;;;;;5067106;28;20188;-83
2021/11/11 05:14:23;;;;;;;10.83;7.00;;;1.30;99.90;;;;;;5083848;28;20279;-83
2021/11/11 05:16:49;;;;;;;15.63;8.40;;;1.50;99.90;;;;;;5068483;28;20692;-83
2021/11/11 05:19:15;;;;;;;12.00;7.50;;;;;;;;;;5068994;28;20177;-84
2021/11/11 05:21:41;;;;;;;12.40;7.67;;;1.40;99.90;;;;;;5081428;28;20185;-83
2021/11/11 05:24:07;;;;;;;16.10;7.70;;;1.50;99.90;;;;;;5064066;28;20477;-83
2021/11/11 05:26:33;;;;;;;13.03;8.03;;;;;;;;;;5064508;28;20549;-83
2021/11/11 05:28:59;;;;;;;12.07;7.83;;;;;;;;;;5081271;28;20173;-83
2021/11/11 05:31:25;;;;;;;15.17;8.43;;;;;;;;;;5063396;28;20414;-83
2021/11/11 05:33:51;;;;;;;11.40;7.03;;;;;;;;;;5062716;28;20967;-83
2021/11/11 05:36:17;;;;;;;13.10;7.70;;;1.30;99.90;;;;;;5063232;28;20462;-83
2021/11/11 05:38:43;;;;;;;15.83;8.13;;;1.30;99.90;;;;;;5062905;28;20420;-83
2021/11/11 05:41:08;;;;;;;12.90;7.90;;;;;;;;;;5062821;28;20600;-83
2021/11/11 05:43:35;;;;;;;14.67;7.23;;;;;;;;;;5062601;28;20188;-83
2021/11/11 05:46:01;;;;;;;13.57;7.87;;;;;;;;;;5062694;28;20212;-83
2021/11/11 05:48:27;;;;;;;11.80;6.67;;;1.30;99.90;;;;;;5062866;28;20909;-82
2021/11/11 05:50:53;;;;;;;11.23;7.03;;;1.40;99.90;;;;;;5063366;28;20446;-83
2021/11/11 05:53:20;;;;;;;11.63;7.03;;;;;;;;;;5062604;28;20264;-82
2021/11/11 05:55:46;;;;;;;14.40;7.00;;;;;;;;;;5063249;28;20474;-82
2021/11/11 05:58:12;;;;;;;15.60;7.60;;;1.60;99.90;;;;;;5063085;28;20779;-82
2021/11/11 06:00:38;;;;;;;13.80;7.90;;;1.40;99.90;;;;;;5080934;28;20192;-82
2021/11/11 06:03:04;;;;;;;15.23;8.17;;;;;;;;;;5061656;28;20183;-82
2021/11/11 06:05:31;;;;;;;9.00;6.80;;;;;;;;;;5061865;28;20682;-82
2021/11/11 06:07:57;;;;;;;9.30;6.43;;;;;;;;;;5061950;28;20870;-83
2021/11/11 06:10:23;;;;;;;11.90;7.30;;;;;;;;;;5061572;28;20446;-82
2021/11/11 06:12:49;;;;;;;16.97;7.60;;;;;;;;;;5078983;28;20498;-82
2021/11/11 06:15:15;;;;;;;9.63;7.27;;;;;;;;;;5060049;28;20463;-81
2021/11/11 06:17:43;;;;;;;11.23;6.77;;;;;;;;;;5077041;28;20430;-82
2021/11/11 06:20:18;;;;;;;13.03;8.07;;;1.30;99.90;;;;;;5060441;28;20447;-83
2021/11/11 06:22:45;;;;;;;16.57;7.50;;;1.40;99.90;;;;;;5062351;28;20403;-83
2021/11/11 06:25:12;;;;;;;13.83;7.03;;;;;;;;;;5078557;28;20505;-83
2021/11/11 06:27:38;;;;;;;14.10;7.13;;;;;;;;;;5061989;28;20509;-83
2021/11/11 06:30:05;;;;;;;13.67;7.60;;;1.30;99.90;;;;;;5061782;28;20415;-84
2021/11/11 06:32:31;;;;;;;10.90;6.80;;;;;;;;;;5081525;28;20502;-83
2021/11/11 06:34:57;;;;;;;13.23;7.40;;;;;;;;;;5079885;28;20556;-84
2021/11/11 06:37:23;;;;;;;11.37;6.23;;;;;;;;;;5079186;28;20403;-83
2021/11/11 06:39:49;;;;;;;12.23;6.43;;;1.50;99.90;;;;;;5061339;28;20413;-83
2021/11/11 06:42:15;;;;;;;12.57;5.77;;;;;;;;;;5062098;28;20185;-83
2021/11/11 06:44:46;;;;;;;14.87;6.63;;;;;;;;;;5079664;28;20204;-83
2021/11/11 06:47:12;;;;;;;13.97;7.20;;;;;;;;;;5063021;28;20407;-84
2021/11/11 06:49:38;;;;;;;11.90;8.20;;;;;;;;;;5082870;28;20411;-83
2021/11/11 06:52:04;;;;;;;12.03;8.53;;;1.80;99.90;;;;;;5070649;28;20433;-82
2021/11/11 06:54:31;;;;;;;15.90;7.87;;;1.80;99.90;;;;;;5090978;28;20275;-82
2021/11/11 06:56:57;;;;;;;19.73;11.27;;;;;;;;;;5088442;28;20468;-83
2021/11/11 06:59:23;;;;;;;14.40;8.83;;;;;;;;;;5084381;28;20404;-83
2021/11/11 07:01:49;;;;;;;10.47;5.63;;;;;;;;;;5078903;28;20885;-83
2021/11/11 07:04:15;;;;;;;10.47;7.60;;;1.90;99.90;;;;;;5061135;28;20465;-85
2021/11/11 07:06:41;;;;;;;18.83;9.90;;;;;;;;;;5061933;28;20244;-84
2021/11/11 07:09:07;;;;;;;19.20;8.27;;;;;;;;;;5060716;28;20177;-84
2021/11/11 07:11:33;;;;;;;9.93;5.57;;;2.00;99.90;;;;;;5060638;28;20861;-84
2021/11/11 07:13:59;;;;;;;12.27;5.73;;;;;;;;;;5079162;28;20427;-86
2021/11/11 07:16:25;;;;;;;10.83;6.50;;;;;;;;;;5060125;28;20204;-84
2021/11/11 07:18:51;;;;;;;13.27;8.40;;;1.90;99.90;;;;;;5060561;28;20416;-84
2021/11/11 07:21:17;;;;;;;15.50;8.23;;;;;;;;;;5078000;28;20449;-84
2021/11/11 07:23:43;;;;;;;12.47;9.00;;;2.10;99.90;;;;;;5059964;28;20184;-84
2021/11/11 07:26:11;;;;;;;17.37;10.93;;;;;;;;;;5061243;28;20439;-83
2021/11/11 07:28:37;;;;;;;14.77;9.43;;;;;;;;;;5078548;28;20889;-84
2021/11/11 07:31:03;;;;;;;13.90;8.03;;;2.20;99.90;;;;;;5060995;28;20414;-84
2021/11/11 07:33:28;;;;;;;14.73;7.77;;;2.10;99.90;;;;;;5060343;28;20411;-83
2021/11/11 07:35:54;;;;;;;10.57;6.10;;;2.20;99.90;;;;;;5079041;28;20240;-84
2021/11/11 07:38:20;;;;;;;9.97;6.97;;;;;;;;;;5078392;28;20264;-84
2021/11/11 07:40:46;;;;;;;9.97;5.27;;;;;;;;;;5059884;28;20181;-84
2021/11/11 07:43:12;;;;;;;11.10;5.63;;;;;;;;;;5060840;28;20407;-84
2021/11/11 07:45:38;;;;;;;15.03;6.83;;;;;;;;;;5077997;28;20780;-84
2021/11/11 07:48:05;;;;;;;7.83;5.57;;;;;;;;;;5060851;28;20776;-84
2021/11/11 07:50:34;;;;;;;8.90;6.40;;;3.00;99.90;;;;;;5060465;28;20419;-84
2021/11/11 07:53:01;;;;;;;9.77;6.13;;;;;;;;;;5060619;28;20419;-84
2021/11/11 07:55:29;;;;;;;11.60;6.60;;;3.40;99.90;;;;;;5079049;28;20801;-84
2021/11/11 07:57:55;;;;;;;11.80;7.00;;;;;;;;;;5061575;28;20783;-84
2021/11/11 08:00:22;;;;;;;9.87;5.60;;;3.70;99.90;;;;;;5061345;28;20430;-85
2021/11/11 08:02:48;;;;;;;7.83;5.00;;;3.90;99.90;;;;;;5061895;28;20426;-85
2021/11/11 08:05:17;;;;;;;8.40;5.60;;;4.10;99.90;;;;;;5063400;28;20466;-84
2021/11/11 08:07:47;;;;;;;9.83;6.10;;;4.20;99.90;;;;;;5061657;28;20797;-84
2021/11/11 08:10:13;;;;;;;10.70;6.80;;;4.30;99.90;;;;;;5078867;28;20415;-84
2021/11/11 08:12:39;;;;;;;14.13;8.60;;;4.50;99.90;;;;;;5060265;28;20429;-84
2021/11/11 08:15:06;;;;;;;13.80;8.90;;;4.80;99.90;;;;;;5078399;28;20258;-85
2021/11/11 08:17:32;;;;;;;31.83;16.77;;;4.90;99.90;;;;;;5060226;28;20179;-85
2021/11/11 08:19:57;;;;;;;34.10;15.27;;;5.10;99.90;;;;;;5078272;28;20407;-85
2021/11/11 08:22:25;;;;;;;34.00;15.60;;;5.30;99.90;;;;;;5061610;28;20220;-85
2021/11/11 08:24:51;;;;;;;30.43;15.30;;;5.50;99.90;;;;;;5060989;28;20580;-85
2021/11/11 08:27:19;;;;;;;20.80;11.10;;;5.70;99.90;;;;;;5062380;28;20180;-85
2021/11/11 08:29:45;;;;;;;20.07;9.97;;;6.10;99.90;;;;;;5079536;28;20247;-85
2021/11/11 08:32:13;;;;;;;18.40;11.37;;;6.30;99.90;;;;;;5060898;28;20208;-85
2021/11/11 08:34:40;;;;;;;15.57;10.27;;;6.60;99.90;;;;;;5060657;28;20210;-85
2021/11/11 08:37:06;;;;;;;20.43;13.00;;;6.90;99.90;;;;;;5079751;28;20174;-85
2021/11/11 08:39:33;;;;;;;14.13;9.03;;;7.10;99.90;;;;;;5079098;28;20170;-85
2021/11/11 08:41:58;;;;;;;13.27;7.63;;;7.20;99.90;;;;;;5061478;28;20177;-85
2021/11/11 08:44:24;;;;;;;11.03;6.17;;;7.50;99.90;;;;;;5061334;28;20194;-85
2021/11/11 08:46:50;;;;;;;8.63;4.53;;;7.80;99.90;;;;;;5061371;28;20565;-85
2021/11/11 08:49:17;;;;;;;6.57;5.63;;;8.10;99.90;;;;;;5062219;28;20182;-85
2021/11/11 08:51:44;;;;;;;7.87;4.97;;;8.50;99.90;;;;;;5080972;28;20173;-85
2021/11/11 08:54:11;;;;;;;12.40;5.23;;;9.00;99.90;;;;;;5071988;28;20224;-84
2021/11/11 08:56:37;;;;;;;11.83;4.77;;;9.50;99.90;;;;;;5076063;28;20208;-84
2021/11/11 08:59:04;;;;;;;9.37;4.73;;;9.80;99.90;;;;;;5092295;28;20181;-85
2021/11/11 09:01:34;;;;;;;7.37;3.73;;;10.00;99.90;;;;;;5060192;28;20630;-85
2021/11/11 09:04:00;;;;;;;13.07;4.67;;;10.50;99.90;;;;;;5062631;28;20200;-85
2021/11/11 09:06:26;;;;;;;6.53;3.80;;;11.20;99.90;;;;;;5063637;28;20177;-85
2021/11/11 09:08:52;;;;;;;7.27;3.73;;;11.80;99.90;;;;;;5081977;28;20173;-85
2021/11/11 09:11:20;;;;;;;6.97;3.53;;;11.90;99.90;;;;;;5063532;28;20177;-85
2021/11/11 09:13:46;;;;;;;6.67;3.60;;;12.10;99.90;;;;;;5082344;28;20662;-85
2021/11/11 09:16:13;;;;;;;10.37;4.53;;;12.40;99.90;;;;;;5065354;28;20201;-85
2021/11/11 09:18:40;;;;;;;13.50;4.23;;;12.90;99.90;;;;;;5065943;28;20231;-84
2021/11/11 09:21:09;;;;;;;11.50;4.50;;;13.10;99.90;;;;;;5064577;28;20188;-84
2021/11/11 09:23:37;;;;;;;9.80;4.23;;;13.80;99.90;;;;;;5078063;28;20228;-85
2021/11/11 09:26:04;;;;;;;14.80;5.70;;;14.40;99.90;;;;;;5082005;28;20182;-85
2021/11/11 09:28:31;;;;;;;8.80;4.80;;;14.90;99.90;;;;;;5064685;28;20190;-85
2021/11/11 09:30:57;;;;;;;9.20;4.60;;;15.10;99.90;;;;;;5063489;28;20545;-85
2021/11/11 09:33:23;;;;;;;8.00;4.30;;;15.40;99.90;;;;;;5080150;28;20186;-82
2021/11/11 09:35:52;;;;;;;9.30;4.00;;;15.70;99.90;;;;;;5063638;28;20210;-82
2021/11/11 09:38:20;;;;;;;8.13;3.93;;;15.60;99.90;;;;;;5081883;28;20585;-85
2021/11/11 09:40:47;;;;;;;4.57;3.57;;;15.50;99.90;;;;;;5063863;28;20222;-83
2021/11/11 09:43:14;;;;;;;6.60;4.00;;;15.30;99.90;;;;;;5063803;28;20184;-85
2021/11/11 09:45:40;;;;;;;8.83;3.50;;;15.30;99.90;;;;;;5063754;28;20200;-83
2021/11/11 09:48:08;;;;;;;4.53;3.30;;;15.40;99.90;;;;;;5082029;28;20342;-83
2021/11/11 09:50:33;;;;;;;5.07;3.40;;;15.70;99.90;;;;;;5064010;28;20187;-83
2021/11/11 09:53:07;;;;;;;5.97;3.83;;;15.80;99.90;;;;;;5063320;28;20181;-83
2021/11/11 10:01:07;;;;;;;8.63;4.10;;;17.00;99.90;;;;;;5083347;28;20526;-83
2021/11/11 10:03:40;;;;;;;5.43;3.80;;;17.00;99.90;;;;;;5064302;28;20191;-83
2021/11/11 10:06:07;;;;;;;5.97;3.63;;;17.30;99.90;;;;;;5064203;28;20731;-84
2021/11/11 10:08:43;;;;;;;7.70;3.90;;;17.60;99.90;;;;;;5083665;28;20207;-83
2021/11/11 10:11:26;;;;;;;4.70;3.83;;;18.10;99.90;;;;;;5064575;28;20180;-83
2021/11/11 10:14:07;;;;;;;6.17;3.50;;;18.60;99.90;;;;;;5081316;28;20253;-83
2021/11/11 10:16:42;;;;;;;6.63;3.80;;;18.60;99.90;;;;;;5064897;28;20225;-83
2021/11/11 10:19:09;;;;;;;5.47;4.20;;;18.50;99.90;;;;;;5066078;28;20517;-83
2021/11/11 10:22:03;;;;;;;9.43;4.13;;;18.20;99.90;;;;;;5083952;28;20195;-84
2021/11/11 10:24:43;;;;;;;13.20;4.60;;;17.80;99.90;;;;;;5065743;28;20211;-83
2021/11/11 10:27:31;;;;;;;7.27;4.23;;;18.00;99.90;;;;;;5066490;28;20167;-84
2021/11/11 10:30:05;;;;;;;5.93;4.73;;;18.40;99.90;;;;;;5065471;28;20556;-83
2021/11/11 10:32:40;;;;;;;8.03;5.40;;;18.80;99.90;;;;;;5064825;28;20544;-83
2021/11/11 10:35:09;;;;;;;10.13;4.70;;;18.70;99.90;;;;;;5065242;28;20301;-83
2021/11/11 10:37:38;;;;;;;13.27;6.00;;;18.50;99.90;;;;;;5065366;28;20187;-83
2021/11/11 10:40:24;;;;;;;13.87;5.90;;;18.50;99.90;;;;;;5066334;28;20639;-83
2021/11/11 10:42:53;;;;;;;8.47;5.27;;;18.50;99.90;;;;;;5067508;28;20168;-83
2021/11/11 10:45:26;;;;;;;10.50;6.13;;;18.60;99.90;;;;;;5085787;28;20191;-83
2021/11/11 10:47:55;;;;;;;8.57;5.37;;;18.60;99.90;;;;;;5066078;28;20179;-83
2021/11/11 10:50:24;;;;;;;9.47;5.50;;;18.90;99.90;;;;;;5066130;28;20177;-83
2021/11/11 10:52:55;;;;;;;5.80;5.17;;;19.10;99.90;;;;;;5066255;28;20220;-83
2021/11/11 10:55:27;;;;;;;7.23;5.53;;;19.00;99.90;;;;;;5068199;28;20204;-83
2021/11/11 10:57:56;;;;;;;6.57;5.63;;;19.00;99.90;;;;;;5078814;28;20200;-83
2021/11/11 11:00:33;;;;;;;7.47;5.30;;;19.20;99.90;;;;;;5095979;28;20166;-82
2021/11/11 11:03:03;;;;;;;7.73;5.00;;;19.00;99.90;;;;;;5076184;28;20173;-83
2021/11/11 11:05:37;;;;;;;8.50;5.13;;;18.90;99.90;;;;;;5062668;28;20251;-83
2021/11/11 11:08:09;;;;;;;8.83;5.93;;;19.00;99.90;;;;;;5062331;28;20172;-83
2021/11/11 11:10:38;;;;;;;8.00;5.67;;;19.40;99.90;;;;;;5063145;28;20204;-83
2021/11/11 11:13:12;;;;;;;6.60;5.90;;;19.00;99.90;;;;;;5081245;28;20181;-83
2021/11/11 11:15:42;;;;;;;9.90;5.10;;;19.00;99.90;;;;;;5080614;28;20264;-83
2021/11/11 11:18:08;;;;;;;8.60;5.30;;;19.50;99.90;;;;;;5080369;28;20248;-83
2021/11/11 11:20:35;;;;;;;8.00;5.33;;;20.20;99.90;;;;;;5063503;28;20256;-82
2021/11/11 11:23:20;;;;;;;8.90;5.67;;;20.60;99.20;;;;;;5063855;28;20173;-81
2021/11/11 11:25:58;;;;;;;7.60;6.53;;;20.80;99.40;;;;;;5081320;28;20190;-82
2021/11/11 11:28:40;;;;;;;8.17;5.40;;;21.00;98.60;;;;;;5064727;28;20246;-81
2021/11/11 11:31:07;;;;;;;7.17;5.63;;;20.50;99.20;;;;;;5063944;28;20238;-81
2021/11/11 11:33:43;;;;;;;7.57;5.80;;;20.10;98.40;;;;;;5082879;28;20172;-82
2021/11/11 11:36:11;;;;;;;9.80;5.77;;;20.40;99.10;;;;;;5066889;28;20222;-82
2021/11/11 11:38:38;;;;;;;9.77;6.43;;;20.70;96.80;;;;;;5068660;28;20196;-81
2021/11/11 11:41:21;;;;;;;9.50;5.83;;;20.80;97.10;;;;;;5075452;28;20184;-81
2021/11/11 11:43:46;;;;;;;8.23;6.87;;;21.10;97.70;;;;;;5076191;28;20205;-81
2021/11/11 11:46:20;;;;;;;6.60;5.87;;;21.30;97.10;;;;;;5093795;28;20228;-81
2021/11/11 11:48:47;;;;;;;8.73;5.67;;;21.40;96.50;;;;;;5074760;28;20204;-81
2021/11/11 11:51:16;;;;;;;7.67;5.63;;;21.40;96.50;;;;;;5069237;28;20217;-81
2021/11/11 11:53:53;;;;;;;7.83;5.43;;;21.30;95.90;;;;;;5081920;28;20180;-81
2021/11/11 11:56:25;;;;;;;5.50;4.93;;;20.80;97.20;;;;;;5064326;28;20211;-81
2021/11/11 11:59:04;;;;;;;7.17;5.13;;;20.70;97.10;;;;;;5080164;28;20149;-81
2021/11/11 12:02:20;;;;;;;8.47;5.57;;;20.80;97.00;;;;;;5061667;28;20161;-81
2021/11/11 12:06:59;;;;;;;10.13;5.53;;;20.50;96.90;;;;;;5079455;28;20573;-81
2021/11/11 12:14:44;;;;;;;6.97;5.60;;;20.60;97.60;;;;;;5078817;28;20195;-81
2021/11/11 12:40:19;;;;;;;8.40;6.40;;;20.50;96.80;;;;;;5083441;28;20188;-82
2021/11/11 12:42:59;;;;;;;8.60;6.67;;;19.80;96.80;;;;;;5062981;28;20183;-82
2021/11/11 12:45:31;;;;;;;10.97;6.83;;;19.00;98.30;;;;;;5065032;28;20197;-81
2021/11/11 12:48:05;;;;;;;9.70;7.17;;;19.40;98.20;;;;;;5064997;28;20314;-82
2021/11/11 12:50:49;;;;;;;8.87;7.30;;;19.80;97.80;;;;;;5065455;28;20199;-82
2021/11/11 12:53:16;;;;;;;10.00;7.13;;;19.10;98.00;;;;;;5065271;28;20187;-82
2021/11/11 12:55:57;;;;;;;9.97;7.20;;;17.70;99.90;;;;;;5065584;28;20207;-81
2021/11/11 12:58:30;;;;;;;10.23;7.77;;;17.20;99.90;;;;;;5072274;28;20177;-81
2021/11/11 13:01:00;;;;;;;11.50;8.03;;;17.00;99.90;;;;;;5093409;28;20196;-81
2021/11/11 13:03:49;;;;;;;13.10;7.73;;;16.60;99.90;;;;;;5093057;28;20172;-81
2021/11/11 13:06:49;;;;;;;10.83;8.13;;;15.90;99.90;;;;;;5067161;28;20172;-82
2021/11/11 13:09:19;;;;;;;11.50;8.67;;;15.10;99.90;;;;;;5027485;28;20255;-81
2021/11/11 13:11:47;;;;;;;13.37;8.10;;;14.80;99.90;;;;;;5065802;28;20283;-82
2021/11/11 13:14:17;;;;;;;11.13;7.93;;;14.40;99.90;;;;;;5083724;28;20691;-82
2021/11/11 13:16:55;;;;;;;9.27;8.13;;;14.00;99.90;;;;;;5082511;28;20214;-82
2021/11/11 13:19:44;;;;;;;15.00;7.97;;;13.60;99.90;;;;;;5084951;28;20195;-85
2021/11/11 13:22:38;;;;;;;11.17;7.93;;;13.40;99.90;;;;;;5068119;28;20199;-83
2021/11/11 13:54:31;;;;;;;11.73;9.07;;;12.50;99.90;;;;;;5082917;28;20296;-83
2021/11/11 15:17:21;;;;;;;18.23;13.03;;;10.30;99.90;;;;;;5083033;28;20204;-83
2021/11/11 15:20:12;;;;;;;26.47;12.70;;;10.30;99.90;;;;;;5082314;28;20169;-84
2021/11/11 16:24:05;;;;;;;33.47;20.80;;;8.00;99.90;;;;;;5083076;28;20193;-83
2021/11/11 16:26:31;;;;;;;41.03;23.10;;;8.00;99.90;;;;;;5070233;28;20177;-84
2021/11/11 16:28:58;;;;;;;35.37;22.67;;;7.90;99.90;;;;;;5063888;28;20206;-83
2021/11/11 16:31:25;;;;;;;35.90;21.90;;;7.80;99.90;;;;;;5063291;28;20177;-84
2021/11/11 16:33:52;;;;;;;26.93;19.53;;;7.70;99.90;;;;;;5063556;28;20202;-84
2021/11/11 16:36:18;;;;;;;33.33;20.50;;;7.70;99.90;;;;;;5063578;28;20202;-83
2021/11/11 16:38:45;;;;;;;29.30;19.97;;;7.70;99.90;;;;;;5080780;28;20166;-84
2021/11/11 16:41:12;;;;;;;34.20;18.90;;;7.60;99.90;;;;;;5063764;28;20173;-86
2021/11/11 16:43:38;;;;;;;27.83;19.30;;;7.50;99.90;;;;;;5062321;28;20503;-82
2021/11/11 16:46:05;;;;;;;30.77;20.33;;;7.50;99.90;;;;;;5078848;28;20539;-83
2021/11/11 16:48:32;;;;;;;34.27;23.43;;;7.40;99.90;;;;;;5079392;28;20181;-82
2021/11/11 16:50:58;;;;;;;33.40;22.07;;;7.40;99.90;;;;;;5061853;28;20191;-82
2021/11/11 16:53:26;;;;;;;27.37;19.80;;;7.40;99.90;;;;;;5062263;28;20173;-83
2021/11/11 16:55:53;;;;;;;27.40;19.57;;;7.30;99.90;;;;;;5061138;28;20463;-82
2021/11/11 16:58:18;;;;;;;31.97;20.90;;;7.20;99.90;;;;;;5062258;28;20169;-81
2021/11/11 17:00:44;;;;;;;31.30;20.97;;;7.20;99.90;;;;;;5079606;28;20165;-82
2021/11/11 17:03:12;;;;;;;32.60;22.30;;;7.10;99.90;;;;;;5062210;28;20644;-81
2021/11/11 17:05:38;;;;;;;28.20;20.17;;;7.00;99.90;;;;;;5079922;28;20697;-82
2021/11/11 17:08:04;;;;;;;33.77;20.03;;;7.00;99.90;;;;;;5061386;28;20182;-82
2021/11/11 17:10:30;;;;;;;33.53;21.43;;;6.90;99.90;;;;;;5088250;28;20220;-81